sensor_id;sensor_type;location;lat;lon;timestamp;temperature;humidity
9973;DHT22;5027;53.560;10.062;2023-06-19T00:00:28;23.70;97.80
9973;DHT22;5027;53.560;10.062;2023-06-19T00:02:56;23.70;97.70
9973;DHT22;5027;53.560;10.062;2023-06-19T00:05:23;23.70;97.70
9973;DHT22;5027;53.560;10.062;2023-06-19T00:07:51;23.70;97.70
9973;DHT22;5027;53.560;10.062;2023-06-19T00:10:18;23.80;97.80
9973;DHT22;5027;53.560;10.062;2023-06-19T00:12:45;23.70;97.60
9973;DHT22;5027;53.560;10.062;2023-06-19T00:15:12;23.70;97.70
9973;DHT22;5027;53.560;10.062;2023-06-19T00:17:38;23.70;97.60
9973;DHT22;5027;53.560;10.062;2023-06-19T00:20:06;23.70;97.70
9973;DHT22;5027;53.560;10.062;2023-06-19T00:22:33;23.70;98.10
9973;DHT22;5027;53.560;10.062;2023-06-19T00:24:59;23.70;98.80
9973;DHT22;5027;53.560;10.062;2023-06-19T00:27:26;23.70;98.30
9973;DHT22;5027;53.560;10.062;2023-06-19T00:29:53;23.80;98.70
9973;DHT22;5027;53.560;10.062;2023-06-19T00:32:21;23.70;98.30
9973;DHT22;5027;53.560;10.062;2023-06-19T00:34:48;23.70;98.00
9973;DHT22;5027;53.560;10.062;2023-06-19T00:37:14;23.70;98.10
9973;DHT22;5027;53.560;10.062;2023-06-19T00:39:41;23.70;98.10
9973;DHT22;5027;53.560;10.062;2023-06-19T00:42:10;23.70;98.00
9973;DHT22;5027;53.560;10.062;2023-06-19T00:44:37;23.70;98.00
9973;DHT22;5027;53.560;10.062;2023-06-19T00:47:04;23.70;98.00
9973;DHT22;5027;53.560;10.062;2023-06-19T00:49:31;23.70;97.90
9973;DHT22;5027;53.560;10.062;2023-06-19T00:51:58;23.70;98.00
9973;DHT22;5027;53.560;10.062;2023-06-19T00:54:25;23.70;97.90
9973;DHT22;5027;53.560;10.062;2023-06-19T00:56:52;23.70;98.00
9973;DHT22;5027;53.560;10.062;2023-06-19T00:59:20;23.70;98.00
9973;DHT22;5027;53.560;10.062;2023-06-19T01:01:47;23.70;98.00
9973;DHT22;5027;53.560;10.062;2023-06-19T01:04:14;23.70;98.00
9973;DHT22;5027;53.560;10.062;2023-06-19T01:06:57;23.70;98.00
9973;DHT22;5027;53.560;10.062;2023-06-19T01:09:31;23.70;97.90
9973;DHT22;5027;53.560;10.062;2023-06-19T01:12:04;23.60;97.90
9973;DHT22;5027;53.560;10.062;2023-06-19T01:14:48;23.70;98.00
9973;DHT22;5027;53.560;10.062;2023-06-19T01:17:16;23.70;98.00
9973;DHT22;5027;53.560;10.062;2023-06-19T01:19:43;23.70;98.10
9973;DHT22;5027;53.560;10.062;2023-06-19T01:22:10;23.70;98.00
9973;DHT22;5027;53.560;10.062;2023-06-19T01:24:36;23.60;98.10
9973;DHT22;5027;53.560;10.062;2023-06-19T01:27:03;23.60;98.00
9973;DHT22;5027;53.560;10.062;2023-06-19T01:29:30;23.60;98.00
9973;DHT22;5027;53.560;10.062;2023-06-19T01:32:04;23.60;98.00
9973;DHT22;5027;53.560;10.062;2023-06-19T01:34:34;23.60;98.10
9973;DHT22;5027;53.560;10.062;2023-06-19T01:37:05;23.70;98.20
9973;DHT22;5027;53.560;10.062;2023-06-19T01:39:33;23.60;98.10
9973;DHT22;5027;53.560;10.062;2023-06-19T01:42:02;23.60;98.20
9973;DHT22;5027;53.560;10.062;2023-06-19T01:44:30;23.60;98.20
9973;DHT22;5027;53.560;10.062;2023-06-19T01:46:57;23.60;98.30
9973;DHT22;5027;53.560;10.062;2023-06-19T01:49:23;23.60;98.30
9973;DHT22;5027;53.560;10.062;2023-06-19T01:51:50;23.60;98.30
9973;DHT22;5027;53.560;10.062;2023-06-19T01:54:17;23.60;98.20
9973;DHT22;5027;53.560;10.062;2023-06-19T01:56:43;23.60;98.30
9973;DHT22;5027;53.560;10.062;2023-06-19T01:59:10;23.60;98.30
9973;DHT22;5027;53.560;10.062;2023-06-19T02:01:37;23.60;98.30
9973;DHT22;5027;53.560;10.062;2023-06-19T02:04:04;23.60;98.30
9973;DHT22;5027;53.560;10.062;2023-06-19T02:06:31;23.60;98.40
9973;DHT22;5027;53.560;10.062;2023-06-19T02:08:58;23.60;98.30
9973;DHT22;5027;53.560;10.062;2023-06-19T02:11:24;23.60;98.30
9973;DHT22;5027;53.560;10.062;2023-06-19T02:13:53;23.60;98.40
9973;DHT22;5027;53.560;10.062;2023-06-19T02:16:20;23.60;98.50
9973;DHT22;5027;53.560;10.062;2023-06-19T02:18:48;23.60;98.40
9973;DHT22;5027;53.560;10.062;2023-06-19T02:21:14;23.50;98.30
9973;DHT22;5027;53.560;10.062;2023-06-19T02:23:41;23.50;98.40
9973;DHT22;5027;53.560;10.062;2023-06-19T02:26:08;23.60;98.50
9973;DHT22;5027;53.560;10.062;2023-06-19T02:28:34;23.60;98.60
9973;DHT22;5027;53.560;10.062;2023-06-19T02:31:01;23.50;98.50
9973;DHT22;5027;53.560;10.062;2023-06-19T02:33:28;23.60;98.50
9973;DHT22;5027;53.560;10.062;2023-06-19T02:35:55;23.50;98.50
9973;DHT22;5027;53.560;10.062;2023-06-19T02:38:26;23.50;98.40
9973;DHT22;5027;53.560;10.062;2023-06-19T02:40:53;23.50;98.50
9973;DHT22;5027;53.560;10.062;2023-06-19T02:43:20;23.50;98.40
9973;DHT22;5027;53.560;10.062;2023-06-19T02:45:47;23.50;98.40
9973;DHT22;5027;53.560;10.062;2023-06-19T02:48:14;23.50;98.40
9973;DHT22;5027;53.560;10.062;2023-06-19T02:50:40;23.50;98.70
9973;DHT22;5027;53.560;10.062;2023-06-19T02:53:07;23.50;98.60
9973;DHT22;5027;53.560;10.062;2023-06-19T02:55:34;23.50;98.70
9973;DHT22;5027;53.560;10.062;2023-06-19T02:58:02;23.50;98.70
9973;DHT22;5027;53.560;10.062;2023-06-19T03:00:29;23.50;98.70
9973;DHT22;5027;53.560;10.062;2023-06-19T03:02:56;23.50;98.70
9973;DHT22;5027;53.560;10.062;2023-06-19T03:05:24;23.40;98.60
9973;DHT22;5027;53.560;10.062;2023-06-19T03:07:55;23.50;98.70
9973;DHT22;5027;53.560;10.062;2023-06-19T03:10:22;23.50;98.70
9973;DHT22;5027;53.560;10.062;2023-06-19T03:12:49;23.40;98.60
9973;DHT22;5027;53.560;10.062;2023-06-19T03:15:16;23.40;98.60
9973;DHT22;5027;53.560;10.062;2023-06-19T03:17:47;23.50;98.70
9973;DHT22;5027;53.560;10.062;2023-06-19T03:20:14;23.40;98.80
9973;DHT22;5027;53.560;10.062;2023-06-19T03:22:48;23.50;98.70
9973;DHT22;5027;53.560;10.062;2023-06-19T03:25:16;23.50;98.70
9973;DHT22;5027;53.560;10.062;2023-06-19T03:27:42;23.40;98.70
9973;DHT22;5027;53.560;10.062;2023-06-19T03:30:09;23.50;98.70
9973;DHT22;5027;53.560;10.062;2023-06-19T03:32:41;23.50;98.70
9973;DHT22;5027;53.560;10.062;2023-06-19T03:35:13;23.40;98.70
9973;DHT22;5027;53.560;10.062;2023-06-19T03:37:43;23.50;98.70
9973;DHT22;5027;53.560;10.062;2023-06-19T03:40:11;23.50;98.80
9973;DHT22;5027;53.560;10.062;2023-06-19T03:42:43;23.40;98.90
9973;DHT22;5027;53.560;10.062;2023-06-19T03:45:11;23.40;99.30
9973;DHT22;5027;53.560;10.062;2023-06-19T03:47:37;23.40;98.80
9973;DHT22;5027;53.560;10.062;2023-06-19T03:50:05;23.40;98.90
9973;DHT22;5027;53.560;10.062;2023-06-19T03:52:47;23.40;98.70
9973;DHT22;5027;53.560;10.062;2023-06-19T03:55:13;23.40;98.70
9973;DHT22;5027;53.560;10.062;2023-06-19T03:57:40;23.40;98.80
9973;DHT22;5027;53.560;10.062;2023-06-19T04:00:07;23.40;99.00
9973;DHT22;5027;53.560;10.062;2023-06-19T04:02:37;23.40;98.90
9973;DHT22;5027;53.560;10.062;2023-06-19T04:05:05;23.40;98.80
9973;DHT22;5027;53.560;10.062;2023-06-19T04:07:32;23.40;98.80
9973;DHT22;5027;53.560;10.062;2023-06-19T04:09:59;23.40;98.80
9973;DHT22;5027;53.560;10.062;2023-06-19T04:12:26;23.40;98.70
9973;DHT22;5027;53.560;10.062;2023-06-19T04:14:52;23.40;98.80
9973;DHT22;5027;53.560;10.062;2023-06-19T04:17:19;23.40;99.10
9973;DHT22;5027;53.560;10.062;2023-06-19T04:19:48;23.40;98.70
9973;DHT22;5027;53.560;10.062;2023-06-19T04:22:14;23.40;98.80
9973;DHT22;5027;53.560;10.062;2023-06-19T04:24:41;23.40;98.90
9973;DHT22;5027;53.560;10.062;2023-06-19T04:27:08;23.40;98.70
9973;DHT22;5027;53.560;10.062;2023-06-19T04:29:35;23.40;98.70
9973;DHT22;5027;53.560;10.062;2023-06-19T04:32:02;23.40;98.80
9973;DHT22;5027;53.560;10.062;2023-06-19T04:34:41;23.40;99.00
9973;DHT22;5027;53.560;10.062;2023-06-19T04:37:12;23.40;99.00
9973;DHT22;5027;53.560;10.062;2023-06-19T04:39:39;23.40;99.00
9973;DHT22;5027;53.560;10.062;2023-06-19T04:42:06;23.40;98.90
9973;DHT22;5027;53.560;10.062;2023-06-19T04:44:33;23.40;99.00
9973;DHT22;5027;53.560;10.062;2023-06-19T04:47:00;23.40;99.10
9973;DHT22;5027;53.560;10.062;2023-06-19T04:49:30;23.40;99.00
9973;DHT22;5027;53.560;10.062;2023-06-19T04:51:57;23.40;99.10
9973;DHT22;5027;53.560;10.062;2023-06-19T04:54:27;23.40;99.00
9973;DHT22;5027;53.560;10.062;2023-06-19T04:56:54;23.40;99.10
9973;DHT22;5027;53.560;10.062;2023-06-19T04:59:21;23.40;98.90
9973;DHT22;5027;53.560;10.062;2023-06-19T05:01:47;23.40;99.40
9973;DHT22;5027;53.560;10.062;2023-06-19T05:04:14;23.40;99.00
9973;DHT22;5027;53.560;10.062;2023-06-19T05:06:41;23.40;99.00
9973;DHT22;5027;53.560;10.062;2023-06-19T05:09:09;23.40;99.00
9973;DHT22;5027;53.560;10.062;2023-06-19T05:11:36;23.40;99.00
9973;DHT22;5027;53.560;10.062;2023-06-19T05:14:03;23.40;98.90
9973;DHT22;5027;53.560;10.062;2023-06-19T05:16:29;23.40;98.90
9973;DHT22;5027;53.560;10.062;2023-06-19T05:18:57;23.30;99.00
9973;DHT22;5027;53.560;10.062;2023-06-19T05:21:23;23.30;99.10
9973;DHT22;5027;53.560;10.062;2023-06-19T05:23:50;23.30;99.10
9973;DHT22;5027;53.560;10.062;2023-06-19T05:26:19;23.40;99.20
9973;DHT22;5027;53.560;10.062;2023-06-19T05:28:47;23.40;99.10
9973;DHT22;5027;53.560;10.062;2023-06-19T05:31:13;23.30;99.10
9973;DHT22;5027;53.560;10.062;2023-06-19T05:33:41;23.30;99.10
9973;DHT22;5027;53.560;10.062;2023-06-19T05:36:08;23.40;99.20
9973;DHT22;5027;53.560;10.062;2023-06-19T05:38:34;23.30;99.10
9973;DHT22;5027;53.560;10.062;2023-06-19T05:41:04;23.30;99.10
9973;DHT22;5027;53.560;10.062;2023-06-19T05:43:31;23.40;99.10
9973;DHT22;5027;53.560;10.062;2023-06-19T05:45:58;23.30;99.00
9973;DHT22;5027;53.560;10.062;2023-06-19T05:48:29;23.30;99.20
9973;DHT22;5027;53.560;10.062;2023-06-19T05:50:55;23.30;99.00
9973;DHT22;5027;53.560;10.062;2023-06-19T05:53:22;23.30;99.10
9973;DHT22;5027;53.560;10.062;2023-06-19T05:55:49;23.30;99.20
9973;DHT22;5027;53.560;10.062;2023-06-19T05:58:16;23.40;99.40
9973;DHT22;5027;53.560;10.062;2023-06-19T06:00:46;23.40;99.30
9973;DHT22;5027;53.560;10.062;2023-06-19T06:03:13;23.40;99.10
9973;DHT22;5027;53.560;10.062;2023-06-19T06:05:41;23.40;99.30
9973;DHT22;5027;53.560;10.062;2023-06-19T06:08:08;23.30;99.30
9973;DHT22;5027;53.560;10.062;2023-06-19T06:10:35;23.30;99.50
9973;DHT22;5027;53.560;10.062;2023-06-19T06:13:01;23.30;99.50
9973;DHT22;5027;53.560;10.062;2023-06-19T06:15:28;23.30;99.50
9973;DHT22;5027;53.560;10.062;2023-06-19T06:17:55;23.40;99.90
9973;DHT22;5027;53.560;10.062;2023-06-19T06:20:22;23.40;99.90
9973;DHT22;5027;53.560;10.062;2023-06-19T06:22:49;23.40;99.90
9973;DHT22;5027;53.560;10.062;2023-06-19T06:25:15;23.40;99.90
9973;DHT22;5027;53.560;10.062;2023-06-19T06:27:42;23.40;99.90
9973;DHT22;5027;53.560;10.062;2023-06-19T06:30:09;23.50;99.90
9973;DHT22;5027;53.560;10.062;2023-06-19T06:32:38;23.50;99.90
9973;DHT22;5027;53.560;10.062;2023-06-19T06:35:05;23.40;99.90
9973;DHT22;5027;53.560;10.062;2023-06-19T06:37:32;23.40;99.90
9973;DHT22;5027;53.560;10.062;2023-06-19T06:39:59;23.40;99.90
9973;DHT22;5027;53.560;10.062;2023-06-19T06:42:25;23.40;99.90
9973;DHT22;5027;53.560;10.062;2023-06-19T06:44:53;23.40;99.90
9973;DHT22;5027;53.560;10.062;2023-06-19T06:47:20;23.40;99.90
9973;DHT22;5027;53.560;10.062;2023-06-19T06:49:46;23.40;99.90
9973;DHT22;5027;53.560;10.062;2023-06-19T06:52:13;23.30;99.90
9973;DHT22;5027;53.560;10.062;2023-06-19T06:54:40;23.40;99.90
9973;DHT22;5027;53.560;10.062;2023-06-19T06:57:06;23.30;99.90
9973;DHT22;5027;53.560;10.062;2023-06-19T06:59:33;23.30;99.90
9973;DHT22;5027;53.560;10.062;2023-06-19T07:02:00;23.40;99.90
9973;DHT22;5027;53.560;10.062;2023-06-19T07:04:27;23.30;99.90
9973;DHT22;5027;53.560;10.062;2023-06-19T07:06:54;23.40;99.90
9973;DHT22;5027;53.560;10.062;2023-06-19T07:09:20;23.40;99.90
9973;DHT22;5027;53.560;10.062;2023-06-19T07:11:50;23.30;99.90
9973;DHT22;5027;53.560;10.062;2023-06-19T07:14:19;23.30;99.90
9973;DHT22;5027;53.560;10.062;2023-06-19T07:16:46;23.30;99.90
9973;DHT22;5027;53.560;10.062;2023-06-19T07:19:13;23.30;99.90
9973;DHT22;5027;53.560;10.062;2023-06-19T07:21:41;23.30;99.90
9973;DHT22;5027;53.560;10.062;2023-06-19T07:24:08;23.30;99.90
9973;DHT22;5027;53.560;10.062;2023-06-19T07:26:35;23.30;99.90
9973;DHT22;5027;53.560;10.062;2023-06-19T07:29:01;23.30;99.90
9973;DHT22;5027;53.560;10.062;2023-06-19T07:31:28;23.30;99.90
9973;DHT22;5027;53.560;10.062;2023-06-19T07:33:55;23.30;99.90
9973;DHT22;5027;53.560;10.062;2023-06-19T07:36:21;23.30;99.90
9973;DHT22;5027;53.560;10.062;2023-06-19T07:38:48;23.30;99.90
9973;DHT22;5027;53.560;10.062;2023-06-19T07:41:15;23.30;99.90
9973;DHT22;5027;53.560;10.062;2023-06-19T07:43:42;23.30;99.90
9973;DHT22;5027;53.560;10.062;2023-06-19T07:46:09;23.30;99.90
9973;DHT22;5027;53.560;10.062;2023-06-19T07:48:36;23.30;99.90
9973;DHT22;5027;53.560;10.062;2023-06-19T07:51:03;23.30;99.90
9973;DHT22;5027;53.560;10.062;2023-06-19T07:53:29;23.40;99.90
9973;DHT22;5027;53.560;10.062;2023-06-19T07:55:56;23.30;99.90
9973;DHT22;5027;53.560;10.062;2023-06-19T07:58:23;23.30;99.90
9973;DHT22;5027;53.560;10.062;2023-06-19T08:00:49;23.40;99.90
9973;DHT22;5027;53.560;10.062;2023-06-19T08:03:16;23.40;99.90
9973;DHT22;5027;53.560;10.062;2023-06-19T08:05:43;23.40;99.90
9973;DHT22;5027;53.560;10.062;2023-06-19T08:08:12;23.40;99.90
9973;DHT22;5027;53.560;10.062;2023-06-19T08:10:38;23.40;99.90
9973;DHT22;5027;53.560;10.062;2023-06-19T08:13:05;23.40;99.90
9973;DHT22;5027;53.560;10.062;2023-06-19T08:15:32;23.40;99.90
9973;DHT22;5027;53.560;10.062;2023-06-19T08:17:59;23.40;99.90
9973;DHT22;5027;53.560;10.062;2023-06-19T08:20:26;23.40;99.90
9973;DHT22;5027;53.560;10.062;2023-06-19T08:22:53;23.40;99.90
9973;DHT22;5027;53.560;10.062;2023-06-19T08:25:20;23.50;99.90
9973;DHT22;5027;53.560;10.062;2023-06-19T08:27:46;23.60;99.90
9973;DHT22;5027;53.560;10.062;2023-06-19T08:30:13;23.50;99.90
9973;DHT22;5027;53.560;10.062;2023-06-19T08:32:40;23.50;99.90
9973;DHT22;5027;53.560;10.062;2023-06-19T08:35:07;23.50;99.90
9973;DHT22;5027;53.560;10.062;2023-06-19T08:37:34;23.60;99.90
9973;DHT22;5027;53.560;10.062;2023-06-19T08:40:01;23.60;99.90
9973;DHT22;5027;53.560;10.062;2023-06-19T08:42:27;23.60;99.90
9973;DHT22;5027;53.560;10.062;2023-06-19T08:44:54;23.60;99.90
9973;DHT22;5027;53.560;10.062;2023-06-19T08:47:21;23.70;99.90
9973;DHT22;5027;53.560;10.062;2023-06-19T08:49:47;23.70;99.90
9973;DHT22;5027;53.560;10.062;2023-06-19T08:52:14;23.70;99.90
9973;DHT22;5027;53.560;10.062;2023-06-19T08:54:41;23.80;99.90
9973;DHT22;5027;53.560;10.062;2023-06-19T08:57:11;23.80;99.90
9973;DHT22;5027;53.560;10.062;2023-06-19T08:59:39;23.80;99.90
9973;DHT22;5027;53.560;10.062;2023-06-19T09:02:06;23.90;99.90
9973;DHT22;5027;53.560;10.062;2023-06-19T09:04:33;23.90;99.90
9973;DHT22;5027;53.560;10.062;2023-06-19T09:07:02;23.90;99.90
9973;DHT22;5027;53.560;10.062;2023-06-19T09:09:44;23.80;99.90
9973;DHT22;5027;53.560;10.062;2023-06-19T09:12:13;23.80;99.90
9973;DHT22;5027;53.560;10.062;2023-06-19T09:14:44;23.90;99.90
9973;DHT22;5027;53.560;10.062;2023-06-19T09:17:13;23.90;99.90
9973;DHT22;5027;53.560;10.062;2023-06-19T09:19:50;23.90;99.90
9973;DHT22;5027;53.560;10.062;2023-06-19T09:22:20;23.90;99.90
9973;DHT22;5027;53.560;10.062;2023-06-19T09:24:48;23.90;99.90
9973;DHT22;5027;53.560;10.062;2023-06-19T09:27:16;23.90;99.90
9973;DHT22;5027;53.560;10.062;2023-06-19T09:29:48;23.80;99.90
9973;DHT22;5027;53.560;10.062;2023-06-19T09:32:20;23.90;99.90
9973;DHT22;5027;53.560;10.062;2023-06-19T09:34:49;23.80;99.90
9973;DHT22;5027;53.560;10.062;2023-06-19T09:37:25;23.90;99.90
9973;DHT22;5027;53.560;10.062;2023-06-19T09:40:11;23.90;99.90
9973;DHT22;5027;53.560;10.062;2023-06-19T09:42:39;23.90;99.90
9973;DHT22;5027;53.560;10.062;2023-06-19T09:45:12;23.90;99.90
9973;DHT22;5027;53.560;10.062;2023-06-19T09:47:47;24.00;99.90
9973;DHT22;5027;53.560;10.062;2023-06-19T09:50:16;24.00;99.90
9973;DHT22;5027;53.560;10.062;2023-06-19T09:52:47;24.00;99.90
9973;DHT22;5027;53.560;10.062;2023-06-19T09:55:14;24.00;99.90
9973;DHT22;5027;53.560;10.062;2023-06-19T09:57:42;24.00;99.90
9973;DHT22;5027;53.560;10.062;2023-06-19T10:00:11;24.00;99.90
9973;DHT22;5027;53.560;10.062;2023-06-19T10:02:40;24.00;99.90
9973;DHT22;5027;53.560;10.062;2023-06-19T10:05:08;24.00;99.90
9973;DHT22;5027;53.560;10.062;2023-06-19T10:07:45;24.00;99.90
9973;DHT22;5027;53.560;10.062;2023-06-19T10:10:26;24.00;99.90
9973;DHT22;5027;53.560;10.062;2023-06-19T10:12:57;24.00;99.90
9973;DHT22;5027;53.560;10.062;2023-06-19T10:15:26;24.10;99.90
9973;DHT22;5027;53.560;10.062;2023-06-19T10:18:01;24.10;99.90
9973;DHT22;5027;53.560;10.062;2023-06-19T10:20:34;24.00;99.90
9973;DHT22;5027;53.560;10.062;2023-06-19T10:23:15;24.00;99.90
9973;DHT22;5027;53.560;10.062;2023-06-19T10:25:47;24.00;99.90
9973;DHT22;5027;53.560;10.062;2023-06-19T10:28:19;24.00;99.90
9973;DHT22;5027;53.560;10.062;2023-06-19T10:33:28;24.00;99.90
9973;DHT22;5027;53.560;10.062;2023-06-19T10:35:55;24.00;99.90
9973;DHT22;5027;53.560;10.062;2023-06-19T10:38:22;24.10;99.90
9973;DHT22;5027;53.560;10.062;2023-06-19T10:40:49;24.10;99.90
9973;DHT22;5027;53.560;10.062;2023-06-19T10:43:22;24.10;99.90
9973;DHT22;5027;53.560;10.062;2023-06-19T10:45:51;24.10;99.90
9973;DHT22;5027;53.560;10.062;2023-06-19T10:48:24;24.10;99.90
9973;DHT22;5027;53.560;10.062;2023-06-19T10:50:51;24.10;99.90
9973;DHT22;5027;53.560;10.062;2023-06-19T10:53:29;24.10;99.90
9973;DHT22;5027;53.560;10.062;2023-06-19T10:56:00;24.10;99.90
9973;DHT22;5027;53.560;10.062;2023-06-19T10:58:28;24.00;99.90
9973;DHT22;5027;53.560;10.062;2023-06-19T11:00:55;24.00;99.90
9973;DHT22;5027;53.560;10.062;2023-06-19T11:03:23;24.10;99.90
9973;DHT22;5027;53.560;10.062;2023-06-19T11:05:50;24.10;99.90
9973;DHT22;5027;53.560;10.062;2023-06-19T11:08:21;24.30;99.90
9973;DHT22;5027;53.560;10.062;2023-06-19T11:10:49;24.20;99.90
9973;DHT22;5027;53.560;10.062;2023-06-19T11:13:18;24.10;99.90
9973;DHT22;5027;53.560;10.062;2023-06-19T11:15:46;24.30;99.90
9973;DHT22;5027;53.560;10.062;2023-06-19T11:18:15;24.50;99.90
9973;DHT22;5027;53.560;10.062;2023-06-19T11:20:50;24.70;99.90
9973;DHT22;5027;53.560;10.062;2023-06-19T11:23:28;24.70;99.90
9973;DHT22;5027;53.560;10.062;2023-06-19T11:26:05;24.50;99.90
9973;DHT22;5027;53.560;10.062;2023-06-19T11:28:32;24.50;99.90
9973;DHT22;5027;53.560;10.062;2023-06-19T11:31:00;24.30;99.90
9973;DHT22;5027;53.560;10.062;2023-06-19T11:33:30;24.20;99.90
9973;DHT22;5027;53.560;10.062;2023-06-19T11:36:00;24.10;99.90
9973;DHT22;5027;53.560;10.062;2023-06-19T11:38:27;24.00;99.90
9973;DHT22;5027;53.560;10.062;2023-06-19T11:40:55;24.30;99.90
9973;DHT22;5027;53.560;10.062;2023-06-19T11:45:52;24.10;99.90
9973;DHT22;5027;53.560;10.062;2023-06-19T11:48:25;24.00;99.90
9973;DHT22;5027;53.560;10.062;2023-06-19T11:50:53;24.00;99.90
9973;DHT22;5027;53.560;10.062;2023-06-19T11:53:21;24.00;99.90
9973;DHT22;5027;53.560;10.062;2023-06-19T11:55:49;24.00;99.90
9973;DHT22;5027;53.560;10.062;2023-06-19T11:58:15;23.90;99.90
9973;DHT22;5027;53.560;10.062;2023-06-19T12:00:43;23.90;99.90
9973;DHT22;5027;53.560;10.062;2023-06-19T12:03:09;23.90;99.90
9973;DHT22;5027;53.560;10.062;2023-06-19T12:05:37;23.80;99.90
9973;DHT22;5027;53.560;10.062;2023-06-19T12:08:05;23.80;99.90
9973;DHT22;5027;53.560;10.062;2023-06-19T12:10:33;23.90;99.90
9973;DHT22;5027;53.560;10.062;2023-06-19T12:13:01;24.30;99.90
9973;DHT22;5027;53.560;10.062;2023-06-19T12:15:27;24.40;99.90
9973;DHT22;5027;53.560;10.062;2023-06-19T12:17:54;24.20;99.90
9973;DHT22;5027;53.560;10.062;2023-06-19T12:20:24;24.20;99.90
9973;DHT22;5027;53.560;10.062;2023-06-19T12:22:52;24.50;99.90
9973;DHT22;5027;53.560;10.062;2023-06-19T12:25:19;24.30;99.90
9973;DHT22;5027;53.560;10.062;2023-06-19T12:27:46;24.10;99.90
9973;DHT22;5027;53.560;10.062;2023-06-19T12:30:12;24.30;99.90
9973;DHT22;5027;53.560;10.062;2023-06-19T12:32:39;24.40;99.90
9973;DHT22;5027;53.560;10.062;2023-06-19T12:35:06;24.30;99.90
9973;DHT22;5027;53.560;10.062;2023-06-19T12:37:33;24.60;99.90
9973;DHT22;5027;53.560;10.062;2023-06-19T12:40:00;25.10;99.90
9973;DHT22;5027;53.560;10.062;2023-06-19T12:42:27;24.80;99.90
9973;DHT22;5027;53.560;10.062;2023-06-19T12:44:54;24.60;99.90
9973;DHT22;5027;53.560;10.062;2023-06-19T12:47:20;24.30;99.90
9973;DHT22;5027;53.560;10.062;2023-06-19T12:49:47;24.20;99.90
9973;DHT22;5027;53.560;10.062;2023-06-19T12:52:14;24.30;99.90
9973;DHT22;5027;53.560;10.062;2023-06-19T12:54:41;24.60;99.90
9973;DHT22;5027;53.560;10.062;2023-06-19T12:57:09;24.70;99.90
9973;DHT22;5027;53.560;10.062;2023-06-19T12:59:35;24.40;99.90
9973;DHT22;5027;53.560;10.062;2023-06-19T13:02:02;24.30;99.90
9973;DHT22;5027;53.560;10.062;2023-06-19T13:04:29;24.30;99.90
9973;DHT22;5027;53.560;10.062;2023-06-19T13:06:56;24.60;99.90
9973;DHT22;5027;53.560;10.062;2023-06-19T13:09:23;24.40;99.90
9973;DHT22;5027;53.560;10.062;2023-06-19T13:11:50;24.50;99.90
9973;DHT22;5027;53.560;10.062;2023-06-19T13:14:17;24.70;99.90
9973;DHT22;5027;53.560;10.062;2023-06-19T13:16:44;24.40;99.90
9973;DHT22;5027;53.560;10.062;2023-06-19T13:19:14;24.10;99.90
9973;DHT22;5027;53.560;10.062;2023-06-19T13:21:41;24.10;99.90
9973;DHT22;5027;53.560;10.062;2023-06-19T13:24:08;24.20;99.90
9973;DHT22;5027;53.560;10.062;2023-06-19T13:26:35;24.30;99.90
9973;DHT22;5027;53.560;10.062;2023-06-19T13:29:02;24.40;99.90
9973;DHT22;5027;53.560;10.062;2023-06-19T13:31:29;24.70;99.90
9973;DHT22;5027;53.560;10.062;2023-06-19T13:33:56;24.50;99.90
9973;DHT22;5027;53.560;10.062;2023-06-19T13:36:22;24.50;99.90
9973;DHT22;5027;53.560;10.062;2023-06-19T13:38:50;24.30;99.90
9973;DHT22;5027;53.560;10.062;2023-06-19T13:41:18;24.20;99.90
9973;DHT22;5027;53.560;10.062;2023-06-19T13:43:45;24.10;99.90
9973;DHT22;5027;53.560;10.062;2023-06-19T13:46:12;24.20;99.90
9973;DHT22;5027;53.560;10.062;2023-06-19T13:48:39;24.20;99.90
9973;DHT22;5027;53.560;10.062;2023-06-19T13:51:06;24.10;99.90
9973;DHT22;5027;53.560;10.062;2023-06-19T13:53:32;24.10;99.90
9973;DHT22;5027;53.560;10.062;2023-06-19T13:55:59;24.20;99.90
9973;DHT22;5027;53.560;10.062;2023-06-19T13:58:26;24.20;99.90
9973;DHT22;5027;53.560;10.062;2023-06-19T14:00:53;24.30;99.90
9973;DHT22;5027;53.560;10.062;2023-06-19T14:03:19;24.20;99.90
9973;DHT22;5027;53.560;10.062;2023-06-19T14:05:47;24.20;99.90
9973;DHT22;5027;53.560;10.062;2023-06-19T14:08:13;24.10;99.90
9973;DHT22;5027;53.560;10.062;2023-06-19T14:10:40;24.20;99.90
9973;DHT22;5027;53.560;10.062;2023-06-19T14:13:08;24.20;99.90
9973;DHT22;5027;53.560;10.062;2023-06-19T14:15:37;24.20;99.90
9973;DHT22;5027;53.560;10.062;2023-06-19T14:18:03;24.20;99.90
9973;DHT22;5027;53.560;10.062;2023-06-19T14:20:31;24.20;99.90
9973;DHT22;5027;53.560;10.062;2023-06-19T14:22:57;24.20;99.90
9973;DHT22;5027;53.560;10.062;2023-06-19T14:25:24;24.20;99.90
9973;DHT22;5027;53.560;10.062;2023-06-19T14:27:51;24.30;99.90
9973;DHT22;5027;53.560;10.062;2023-06-19T14:30:18;24.40;99.90
9973;DHT22;5027;53.560;10.062;2023-06-19T14:32:45;24.30;99.90
9973;DHT22;5027;53.560;10.062;2023-06-19T14:35:12;24.20;99.90
9973;DHT22;5027;53.560;10.062;2023-06-19T14:37:38;24.10;99.90
9973;DHT22;5027;53.560;10.062;2023-06-19T14:40:06;24.10;99.90
9973;DHT22;5027;53.560;10.062;2023-06-19T14:42:33;24.00;99.90
9973;DHT22;5027;53.560;10.062;2023-06-19T14:44:59;24.00;99.90
9973;DHT22;5027;53.560;10.062;2023-06-19T14:47:26;24.00;99.90
9973;DHT22;5027;53.560;10.062;2023-06-19T14:49:53;24.00;99.90
9973;DHT22;5027;53.560;10.062;2023-06-19T14:52:20;24.10;99.90
9973;DHT22;5027;53.560;10.062;2023-06-19T14:54:47;24.10;99.90
9973;DHT22;5027;53.560;10.062;2023-06-19T14:57:14;24.10;99.90
9973;DHT22;5027;53.560;10.062;2023-06-19T14:59:41;24.00;99.90
9973;DHT22;5027;53.560;10.062;2023-06-19T15:02:07;24.00;99.90
9973;DHT22;5027;53.560;10.062;2023-06-19T15:04:34;24.00;99.90
9973;DHT22;5027;53.560;10.062;2023-06-19T15:07:01;24.00;99.90
9973;DHT22;5027;53.560;10.062;2023-06-19T15:09:28;24.00;99.90
9973;DHT22;5027;53.560;10.062;2023-06-19T15:11:55;24.00;99.90
9973;DHT22;5027;53.560;10.062;2023-06-19T15:14:21;24.00;99.90
9973;DHT22;5027;53.560;10.062;2023-06-19T15:16:48;24.10;99.90
9973;DHT22;5027;53.560;10.062;2023-06-19T15:19:15;24.20;99.90
9973;DHT22;5027;53.560;10.062;2023-06-19T15:21:42;24.10;99.90
9973;DHT22;5027;53.560;10.062;2023-06-19T15:24:09;24.10;99.90
9973;DHT22;5027;53.560;10.062;2023-06-19T15:26:35;24.00;99.90
9973;DHT22;5027;53.560;10.062;2023-06-19T15:29:05;24.00;99.90
9973;DHT22;5027;53.560;10.062;2023-06-19T15:31:32;24.10;99.90
9973;DHT22;5027;53.560;10.062;2023-06-19T15:33:59;24.10;99.90
9973;DHT22;5027;53.560;10.062;2023-06-19T15:36:26;24.10;99.90
9973;DHT22;5027;53.560;10.062;2023-06-19T15:38:53;24.10;99.90
9973;DHT22;5027;53.560;10.062;2023-06-19T15:41:20;24.00;99.90
9973;DHT22;5027;53.560;10.062;2023-06-19T15:43:47;24.10;99.90
9973;DHT22;5027;53.560;10.062;2023-06-19T15:46:14;24.00;99.90
9973;DHT22;5027;53.560;10.062;2023-06-19T15:48:41;24.00;99.90
9973;DHT22;5027;53.560;10.062;2023-06-19T15:51:09;24.00;99.90
9973;DHT22;5027;53.560;10.062;2023-06-19T15:53:39;24.10;99.90